Golden Triangle Regional Air, Mississippi
Current Conditions -  °F | °C
As of 6:50 AM on Monday 20 Oct 2014 (Local Time) from KGTR Reporting Station
Haze Haze  
Wind Chill: 43°   Ceiling: 100
Heat Index: 43°   Visibility: 0.75mi
Dew Point: 39°   Wind: 0mph
Humidity: 87%   Direction: NA
Pressure: 30.08"   Gusts: NA
Location:  33.455°N, 88.5512°W
Report Text: KGTR 201150Z 00000KT 3/4SM BR BKN001 06/04 A3008
Loading
Personal Weather Stations






























Interactive Weather Map
Tropical Storm Tracking
New forecast layout! Learn more

10-Day Weather Forecast

Advertisements
Track Severe Weather on mobile